Saint Francis, KS (67756)

1:33 AM CDT on October 01, 2016 (GMT -0500)
South Center on Hwy 36 | | Change Station

Elev 3350 ft 39.77 °N, 101.80 °W | Updated 8 seconds ago

Clear
Clear
56.5 °F
Feels Like 56.5 °F
N
0.0
Wind Variable Wind from SSE
Gusts 0.0 mph

Today
High -- | Low -- °F
--% Chance of Precip.
Yesterday
High -- | Low -- °F
Precip. -- in
Pressure 30.14 in
Visibility 10.0 miles
Clouds Clear
Dew Point 46 °F
Humidity 68%
Rainfall 0.00 in
Snow Depth Not available.
7:44 AM 7:28 PM
New Moon, 0% visible
METAR KSYF 010615Z AUTO 19003KT 10SM CLR 12/06 A3014 RMK AO2 T01220061
Pressure 30.14 in
Visibility 10.0 miles
Clouds Clear
Dew Point 46 °F
Humidity 68%
Rainfall 0.00 in
Snow Depth Not available.
7:44 AM 7:28 PM
New Moon, 0% visible
METAR KSYF 010615Z AUTO 19003KT 10SM CLR 12/06 A3014 RMK AO2 T01220061

10-Day Weather Forecast

Almanac

Astronomy

Oct. 01, 2016 Rise Set
Actual Time
Civil Twilight
Nautical Twilight
Astronomical Twilight
Moon
Length of Visible Light
Length of Day
Tomorrow will be .
, % of the Moon is Illuminated

Today's Extremes

State Highs State Lows

Community

WunderPhotos

Upload Photos

1,942,898 photos uploaded!

WunderBlog® & News

Nearby

Air Quality

  Air Quality AQ Index Pollutant
Not available.

Snow Depth

Station Depth Elevation

Earthquake Activity

City Distance Mag. Time & Date
Minimum magnitude displayed is 2.5.

Coastal Water Temperatures

Place Temperature

Stations

Nearby Weather Stations

Station Location Temp. Windchill Dew Point Humidity Wind Precip. Elev Updated Type
                   

Watches & Warnings

There are currently no watches in effect.